sensor_id;sensor_type;location;lat;lon;timestamp;temperature;humidity
26707;DHT22;14319;49.422;10.934;2024-03-02T00:00:07;7.60;93.70
26707;DHT22;14319;49.422;10.934;2024-03-02T00:02:14;7.50;93.60
26707;DHT22;14319;49.422;10.934;2024-03-02T00:04:15;7.40;93.10
26707;DHT22;14319;49.422;10.934;2024-03-02T00:06:20;7.20;94.10
26707;DHT22;14319;49.422;10.934;2024-03-02T00:08:26;7.10;94.90
26707;DHT22;14319;49.422;10.934;2024-03-02T00:10:38;7.00;95.50
26707;DHT22;14319;49.422;10.934;2024-03-02T00:12:41;7.20;95.30
26707;DHT22;14319;49.422;10.934;2024-03-02T00:14:42;7.40;94.50
26707;DHT22;14319;49.422;10.934;2024-03-02T00:16:43;7.40;94.00
26707;DHT22;14319;49.422;10.934;2024-03-02T00:18:43;7.40;93.60
26707;DHT22;14319;49.422;10.934;2024-03-02T00:20:44;7.30;94.50
26707;DHT22;14319;49.422;10.934;2024-03-02T00:22:45;7.30;94.80
26707;DHT22;14319;49.422;10.934;2024-03-02T00:24:46;7.40;94.60
26707;DHT22;14319;49.422;10.934;2024-03-02T00:26:47;7.40;93.60
26707;DHT22;14319;49.422;10.934;2024-03-02T00:28:48;7.30;94.10
26707;DHT22;14319;49.422;10.934;2024-03-02T00:32:54;7.20;95.10
26707;DHT22;14319;49.422;10.934;2024-03-02T00:34:55;7.40;94.70
26707;DHT22;14319;49.422;10.934;2024-03-02T00:36:57;7.40;94.30
26707;DHT22;14319;49.422;10.934;2024-03-02T00:39:00;7.40;94.30
26707;DHT22;14319;49.422;10.934;2024-03-02T00:41:05;7.40;93.30
26707;DHT22;14319;49.422;10.934;2024-03-02T00:45:39;7.20;94.60
26707;DHT22;14319;49.422;10.934;2024-03-02T00:47:40;7.30;94.70
26707;DHT22;14319;49.422;10.934;2024-03-02T00:49:40;7.20;94.30
26707;DHT22;14319;49.422;10.934;2024-03-02T00:51:41;7.10;94.70
26707;DHT22;14319;49.422;10.934;2024-03-02T00:53:42;7.00;95.60
26707;DHT22;14319;49.422;10.934;2024-03-02T00:55:42;7.00;95.10
26707;DHT22;14319;49.422;10.934;2024-03-02T00:57:47;7.00;95.90
26707;DHT22;14319;49.422;10.934;2024-03-02T00:59:48;7.00;96.10
26707;DHT22;14319;49.422;10.934;2024-03-02T01:01:49;7.10;95.40
26707;DHT22;14319;49.422;10.934;2024-03-02T01:03:50;7.10;94.90
26707;DHT22;14319;49.422;10.934;2024-03-02T01:05:50;7.10;94.50
26707;DHT22;14319;49.422;10.934;2024-03-02T01:07:51;7.10;94.50
26707;DHT22;14319;49.422;10.934;2024-03-02T01:09:52;6.90;94.80
26707;DHT22;14319;49.422;10.934;2024-03-02T01:11:52;6.80;95.80
26707;DHT22;14319;49.422;10.934;2024-03-02T01:13:53;6.70;96.50
26707;DHT22;14319;49.422;10.934;2024-03-02T01:15:53;6.80;96.70
26707;DHT22;14319;49.422;10.934;2024-03-02T01:17:54;6.80;95.80
26707;DHT22;14319;49.422;10.934;2024-03-02T01:19:54;6.80;95.90
26707;DHT22;14319;49.422;10.934;2024-03-02T01:21:55;7.00;95.20
26707;DHT22;14319;49.422;10.934;2024-03-02T01:23:56;7.00;94.60
26707;DHT22;14319;49.422;10.934;2024-03-02T01:25:56;7.10;94.60
26707;DHT22;14319;49.422;10.934;2024-03-02T01:27:57;7.10;94.10
26707;DHT22;14319;49.422;10.934;2024-03-02T01:29:58;7.10;94.80
26707;DHT22;14319;49.422;10.934;2024-03-02T01:32:00;7.00;94.50
26707;DHT22;14319;49.422;10.934;2024-03-02T01:34:00;6.90;95.30
26707;DHT22;14319;49.422;10.934;2024-03-02T01:36:01;6.90;95.80
26707;DHT22;14319;49.422;10.934;2024-03-02T01:38:02;6.90;96.10
26707;DHT22;14319;49.422;10.934;2024-03-02T01:40:03;6.90;96.30
26707;DHT22;14319;49.422;10.934;2024-03-02T01:42:09;6.90;96.00
26707;DHT22;14319;49.422;10.934;2024-03-02T01:44:11;6.80;96.30
26707;DHT22;14319;49.422;10.934;2024-03-02T01:46:11;6.70;96.70
26707;DHT22;14319;49.422;10.934;2024-03-02T01:48:12;6.70;96.80
26707;DHT22;14319;49.422;10.934;2024-03-02T01:50:12;6.80;97.20
26707;DHT22;14319;49.422;10.934;2024-03-02T01:52:13;6.90;97.00
26707;DHT22;14319;49.422;10.934;2024-03-02T01:54:14;7.00;96.40
26707;DHT22;14319;49.422;10.934;2024-03-02T01:56:14;7.10;95.50
26707;DHT22;14319;49.422;10.934;2024-03-02T01:58:15;7.10;96.00
26707;DHT22;14319;49.422;10.934;2024-03-02T02:00:16;7.10;95.30
26707;DHT22;14319;49.422;10.934;2024-03-02T02:02:17;7.10;95.10
26707;DHT22;14319;49.422;10.934;2024-03-02T02:04:17;7.10;95.70
26707;DHT22;14319;49.422;10.934;2024-03-02T02:06:18;7.00;94.70
26707;DHT22;14319;49.422;10.934;2024-03-02T02:08:19;7.10;94.90
26707;DHT22;14319;49.422;10.934;2024-03-02T02:10:19;7.00;95.10
26707;DHT22;14319;49.422;10.934;2024-03-02T02:12:20;6.80;95.30
26707;DHT22;14319;49.422;10.934;2024-03-02T02:14:21;6.80;96.00
26707;DHT22;14319;49.422;10.934;2024-03-02T02:16:22;6.80;96.40
26707;DHT22;14319;49.422;10.934;2024-03-02T02:18:22;6.70;96.00
26707;DHT22;14319;49.422;10.934;2024-03-02T02:20:24;6.60;96.40
26707;DHT22;14319;49.422;10.934;2024-03-02T02:22:24;6.60;96.50
26707;DHT22;14319;49.422;10.934;2024-03-02T02:24:25;6.50;98.70
26707;DHT22;14319;49.422;10.934;2024-03-02T02:26:25;6.60;97.20
26707;DHT22;14319;49.422;10.934;2024-03-02T02:28:26;6.70;97.30
26707;DHT22;14319;49.422;10.934;2024-03-02T02:30:29;6.60;96.70
26707;DHT22;14319;49.422;10.934;2024-03-02T02:32:30;6.50;97.40
26707;DHT22;14319;49.422;10.934;2024-03-02T02:34:30;6.60;98.00
26707;DHT22;14319;49.422;10.934;2024-03-02T02:36:32;6.80;96.90
26707;DHT22;14319;49.422;10.934;2024-03-02T02:38:38;6.80;96.50
26707;DHT22;14319;49.422;10.934;2024-03-02T02:40:39;6.90;96.40
26707;DHT22;14319;49.422;10.934;2024-03-02T02:42:40;6.90;96.60
26707;DHT22;14319;49.422;10.934;2024-03-02T02:44:41;7.00;95.60
26707;DHT22;14319;49.422;10.934;2024-03-02T02:46:41;7.00;95.00
26707;DHT22;14319;49.422;10.934;2024-03-02T02:48:42;7.10;94.70
26707;DHT22;14319;49.422;10.934;2024-03-02T02:50:43;7.00;94.30
26707;DHT22;14319;49.422;10.934;2024-03-02T02:52:43;7.00;94.20
26707;DHT22;14319;49.422;10.934;2024-03-02T02:54:44;7.10;94.50
26707;DHT22;14319;49.422;10.934;2024-03-02T02:56:44;7.10;94.60
26707;DHT22;14319;49.422;10.934;2024-03-02T02:58:45;7.20;94.40
26707;DHT22;14319;49.422;10.934;2024-03-02T03:00:46;7.20;94.30
26707;DHT22;14319;49.422;10.934;2024-03-02T03:02:48;7.20;94.10
26707;DHT22;14319;49.422;10.934;2024-03-02T03:04:49;7.30;94.30
26707;DHT22;14319;49.422;10.934;2024-03-02T03:06:49;7.30;94.40
26707;DHT22;14319;49.422;10.934;2024-03-02T03:08:50;7.20;94.40
26707;DHT22;14319;49.422;10.934;2024-03-02T03:10:50;7.10;95.60
26707;DHT22;14319;49.422;10.934;2024-03-02T03:12:51;7.10;96.00
26707;DHT22;14319;49.422;10.934;2024-03-02T03:14:52;7.00;96.70
26707;DHT22;14319;49.422;10.934;2024-03-02T03:16:52;7.10;97.00
26707;DHT22;14319;49.422;10.934;2024-03-02T03:18:53;7.10;95.90
26707;DHT22;14319;49.422;10.934;2024-03-02T03:20:54;7.10;95.90
26707;DHT22;14319;49.422;10.934;2024-03-02T03:22:55;7.30;95.50
26707;DHT22;14319;49.422;10.934;2024-03-02T03:24:55;7.30;95.20
26707;DHT22;14319;49.422;10.934;2024-03-02T03:26:56;7.20;95.20
26707;DHT22;14319;49.422;10.934;2024-03-02T03:28:57;7.20;95.30
26707;DHT22;14319;49.422;10.934;2024-03-02T03:30:58;7.20;95.10
26707;DHT22;14319;49.422;10.934;2024-03-02T03:32:59;7.10;94.70
26707;DHT22;14319;49.422;10.934;2024-03-02T03:34:59;7.20;95.60
26707;DHT22;14319;49.422;10.934;2024-03-02T03:37:00;7.20;95.60
26707;DHT22;14319;49.422;10.934;2024-03-02T03:39:00;7.20;94.90
26707;DHT22;14319;49.422;10.934;2024-03-02T03:41:03;7.30;94.50
26707;DHT22;14319;49.422;10.934;2024-03-02T03:43:04;7.30;94.70
26707;DHT22;14319;49.422;10.934;2024-03-02T03:45:05;7.40;94.20
26707;DHT22;14319;49.422;10.934;2024-03-02T03:47:07;7.30;93.30
26707;DHT22;14319;49.422;10.934;2024-03-02T03:49:07;7.20;94.60
26707;DHT22;14319;49.422;10.934;2024-03-02T03:51:08;7.30;94.20
26707;DHT22;14319;49.422;10.934;2024-03-02T03:53:08;7.30;93.90
26707;DHT22;14319;49.422;10.934;2024-03-02T03:55:09;7.30;93.70
26707;DHT22;14319;49.422;10.934;2024-03-02T03:57:10;7.30;93.50
26707;DHT22;14319;49.422;10.934;2024-03-02T03:59:11;7.30;94.00
26707;DHT22;14319;49.422;10.934;2024-03-02T04:01:11;7.30;93.60
26707;DHT22;14319;49.422;10.934;2024-03-02T04:03:12;7.20;94.00
26707;DHT22;14319;49.422;10.934;2024-03-02T04:05:13;7.10;94.20
26707;DHT22;14319;49.422;10.934;2024-03-02T04:07:14;7.10;93.90
26707;DHT22;14319;49.422;10.934;2024-03-02T04:09:14;7.10;94.30
26707;DHT22;14319;49.422;10.934;2024-03-02T04:11:15;7.00;94.20
26707;DHT22;14319;49.422;10.934;2024-03-02T04:13:15;6.90;95.10
26707;DHT22;14319;49.422;10.934;2024-03-02T04:15:16;6.80;95.20
26707;DHT22;14319;49.422;10.934;2024-03-02T04:17:16;6.70;95.30
26707;DHT22;14319;49.422;10.934;2024-03-02T04:19:17;6.80;95.40
26707;DHT22;14319;49.422;10.934;2024-03-02T04:21:18;6.80;94.30
26707;DHT22;14319;49.422;10.934;2024-03-02T04:23:18;6.80;95.20
26707;DHT22;14319;49.422;10.934;2024-03-02T04:25:19;6.70;94.90
26707;DHT22;14319;49.422;10.934;2024-03-02T04:27:20;6.70;94.70
26707;DHT22;14319;49.422;10.934;2024-03-02T04:29:21;6.80;94.80
26707;DHT22;14319;49.422;10.934;2024-03-02T04:31:21;6.70;94.10
26707;DHT22;14319;49.422;10.934;2024-03-02T04:33:22;6.70;94.40
26707;DHT22;14319;49.422;10.934;2024-03-02T04:35:23;6.60;94.70
26707;DHT22;14319;49.422;10.934;2024-03-02T04:37:23;6.50;94.90
26707;DHT22;14319;49.422;10.934;2024-03-02T04:39:24;6.50;94.90
26707;DHT22;14319;49.422;10.934;2024-03-02T04:41:25;6.50;95.10
26707;DHT22;14319;49.422;10.934;2024-03-02T04:43:26;6.50;94.90
26707;DHT22;14319;49.422;10.934;2024-03-02T04:45:26;6.50;95.40
26707;DHT22;14319;49.422;10.934;2024-03-02T04:47:27;6.50;95.40
26707;DHT22;14319;49.422;10.934;2024-03-02T04:49:27;6.60;94.40
26707;DHT22;14319;49.422;10.934;2024-03-02T04:51:28;6.60;95.10
26707;DHT22;14319;49.422;10.934;2024-03-02T04:53:29;6.70;95.10
26707;DHT22;14319;49.422;10.934;2024-03-02T04:55:29;6.80;94.10
26707;DHT22;14319;49.422;10.934;2024-03-02T04:57:55;6.80;94.30
26707;DHT22;14319;49.422;10.934;2024-03-02T04:59:56;6.80;94.10
26707;DHT22;14319;49.422;10.934;2024-03-02T05:01:57;6.80;93.80
26707;DHT22;14319;49.422;10.934;2024-03-02T05:03:58;6.60;94.60
26707;DHT22;14319;49.422;10.934;2024-03-02T05:05:59;6.60;94.80
26707;DHT22;14319;49.422;10.934;2024-03-02T05:07:59;6.50;94.80
26707;DHT22;14319;49.422;10.934;2024-03-02T05:10:00;6.50;94.40
26707;DHT22;14319;49.422;10.934;2024-03-02T05:12:01;6.60;94.10
26707;DHT22;14319;49.422;10.934;2024-03-02T05:14:20;6.60;94.20
26707;DHT22;14319;49.422;10.934;2024-03-02T05:16:21;6.60;94.10
26707;DHT22;14319;49.422;10.934;2024-03-02T05:18:22;6.60;94.30
26707;DHT22;14319;49.422;10.934;2024-03-02T05:20:24;6.70;93.60
26707;DHT22;14319;49.422;10.934;2024-03-02T05:22:24;6.60;93.60
26707;DHT22;14319;49.422;10.934;2024-03-02T05:24:25;6.50;94.30
26707;DHT22;14319;49.422;10.934;2024-03-02T05:26:28;6.50;94.60
26707;DHT22;14319;49.422;10.934;2024-03-02T05:28:28;6.50;94.40
26707;DHT22;14319;49.422;10.934;2024-03-02T05:30:29;6.60;94.20
26707;DHT22;14319;49.422;10.934;2024-03-02T05:32:30;6.70;93.90
26707;DHT22;14319;49.422;10.934;2024-03-02T05:34:30;6.80;93.30
26707;DHT22;14319;49.422;10.934;2024-03-02T05:36:33;6.80;93.60
26707;DHT22;14319;49.422;10.934;2024-03-02T05:38:36;6.70;93.40
26707;DHT22;14319;49.422;10.934;2024-03-02T05:40:37;6.50;94.20
26707;DHT22;14319;49.422;10.934;2024-03-02T05:42:37;6.50;94.10
26707;DHT22;14319;49.422;10.934;2024-03-02T05:44:38;6.50;93.80
26707;DHT22;14319;49.422;10.934;2024-03-02T05:46:39;6.50;94.20
26707;DHT22;14319;49.422;10.934;2024-03-02T05:48:39;6.40;93.90
26707;DHT22;14319;49.422;10.934;2024-03-02T05:50:40;6.50;94.20
26707;DHT22;14319;49.422;10.934;2024-03-02T05:52:41;6.50;93.90
26707;DHT22;14319;49.422;10.934;2024-03-02T05:54:41;6.60;93.50
26707;DHT22;14319;49.422;10.934;2024-03-02T05:56:42;6.60;93.10
26707;DHT22;14319;49.422;10.934;2024-03-02T05:58:43;6.60;92.70
26707;DHT22;14319;49.422;10.934;2024-03-02T06:00:58;6.50;92.40
26707;DHT22;14319;49.422;10.934;2024-03-02T06:02:58;6.40;92.70
26707;DHT22;14319;49.422;10.934;2024-03-02T06:04:59;6.30;92.90
26707;DHT22;14319;49.422;10.934;2024-03-02T06:07:02;6.20;93.00
26707;DHT22;14319;49.422;10.934;2024-03-02T06:09:04;6.20;94.10
26707;DHT22;14319;49.422;10.934;2024-03-02T06:11:08;6.10;93.10
26707;DHT22;14319;49.422;10.934;2024-03-02T06:13:08;6.00;94.00
26707;DHT22;14319;49.422;10.934;2024-03-02T06:15:09;6.10;94.80
26707;DHT22;14319;49.422;10.934;2024-03-02T06:17:11;5.90;93.70
26707;DHT22;14319;49.422;10.934;2024-03-02T06:19:11;5.90;94.80
26707;DHT22;14319;49.422;10.934;2024-03-02T06:21:12;5.90;94.00
26707;DHT22;14319;49.422;10.934;2024-03-02T06:23:12;5.90;95.10
26707;DHT22;14319;49.422;10.934;2024-03-02T06:25:13;5.90;94.20
26707;DHT22;14319;49.422;10.934;2024-03-02T06:27:13;5.80;94.70
26707;DHT22;14319;49.422;10.934;2024-03-02T06:29:14;5.70;96.20
26707;DHT22;14319;49.422;10.934;2024-03-02T06:31:14;5.80;95.90
26707;DHT22;14319;49.422;10.934;2024-03-02T06:33:15;5.90;94.90
26707;DHT22;14319;49.422;10.934;2024-03-02T06:35:16;5.90;95.30
26707;DHT22;14319;49.422;10.934;2024-03-02T06:37:16;6.00;95.20
26707;DHT22;14319;49.422;10.934;2024-03-02T06:39:17;6.00;94.20
26707;DHT22;14319;49.422;10.934;2024-03-02T06:41:18;5.90;94.90
26707;DHT22;14319;49.422;10.934;2024-03-02T06:43:18;6.00;94.50
26707;DHT22;14319;49.422;10.934;2024-03-02T06:45:23;5.90;94.50
26707;DHT22;14319;49.422;10.934;2024-03-02T06:47:24;6.00;95.50
26707;DHT22;14319;49.422;10.934;2024-03-02T06:49:25;6.00;94.70
26707;DHT22;14319;49.422;10.934;2024-03-02T06:51:25;6.00;95.60
26707;DHT22;14319;49.422;10.934;2024-03-02T06:53:26;6.10;95.30
26707;DHT22;14319;49.422;10.934;2024-03-02T06:55:26;6.00;94.80
26707;DHT22;14319;49.422;10.934;2024-03-02T06:57:27;5.90;96.20
26707;DHT22;14319;49.422;10.934;2024-03-02T06:59:27;6.00;96.50
26707;DHT22;14319;49.422;10.934;2024-03-02T07:01:28;6.10;95.70
26707;DHT22;14319;49.422;10.934;2024-03-02T07:03:29;6.20;96.80
26707;DHT22;14319;49.422;10.934;2024-03-02T07:05:29;6.20;96.30
26707;DHT22;14319;49.422;10.934;2024-03-02T07:07:30;6.30;96.60
26707;DHT22;14319;49.422;10.934;2024-03-02T07:09:31;6.40;96.40
26707;DHT22;14319;49.422;10.934;2024-03-02T07:11:31;6.50;96.20
26707;DHT22;14319;49.422;10.934;2024-03-02T07:13:32;6.60;95.10
26707;DHT22;14319;49.422;10.934;2024-03-02T07:15:32;6.60;95.80
26707;DHT22;14319;49.422;10.934;2024-03-02T07:17:52;6.50;95.80
26707;DHT22;14319;49.422;10.934;2024-03-02T07:19:52;6.70;95.40
26707;DHT22;14319;49.422;10.934;2024-03-02T07:21:53;6.70;95.50
26707;DHT22;14319;49.422;10.934;2024-03-02T07:23:54;6.80;95.30
26707;DHT22;14319;49.422;10.934;2024-03-02T07:25:54;6.90;95.10
26707;DHT22;14319;49.422;10.934;2024-03-02T07:27:56;7.00;94.70
26707;DHT22;14319;49.422;10.934;2024-03-02T07:29:57;7.10;94.80
26707;DHT22;14319;49.422;10.934;2024-03-02T07:31:58;7.10;94.40
26707;DHT22;14319;49.422;10.934;2024-03-02T07:33:58;7.20;94.20
26707;DHT22;14319;49.422;10.934;2024-03-02T07:35:59;7.30;94.30
26707;DHT22;14319;49.422;10.934;2024-03-02T07:38:01;7.40;94.30
26707;DHT22;14319;49.422;10.934;2024-03-02T07:40:02;7.40;94.20
26707;DHT22;14319;49.422;10.934;2024-03-02T07:42:03;7.40;94.20
26707;DHT22;14319;49.422;10.934;2024-03-02T07:44:04;7.50;94.50
26707;DHT22;14319;49.422;10.934;2024-03-02T07:46:05;7.50;94.50
26707;DHT22;14319;49.422;10.934;2024-03-02T07:48:06;7.60;94.60
26707;DHT22;14319;49.422;10.934;2024-03-02T07:50:07;7.60;94.70
26707;DHT22;14319;49.422;10.934;2024-03-02T07:52:08;7.60;94.80
26707;DHT22;14319;49.422;10.934;2024-03-02T07:54:08;7.70;95.50
26707;DHT22;14319;49.422;10.934;2024-03-02T07:56:09;7.70;96.20
26707;DHT22;14319;49.422;10.934;2024-03-02T07:58:10;7.70;96.10
26707;DHT22;14319;49.422;10.934;2024-03-02T08:00:12;7.70;96.30
26707;DHT22;14319;49.422;10.934;2024-03-02T08:02:13;7.80;95.60
26707;DHT22;14319;49.422;10.934;2024-03-02T08:04:14;7.90;95.70
26707;DHT22;14319;49.422;10.934;2024-03-02T08:06:14;8.00;95.50
26707;DHT22;14319;49.422;10.934;2024-03-02T08:08:15;8.00;96.20
26707;DHT22;14319;49.422;10.934;2024-03-02T08:10:16;8.00;96.50
26707;DHT22;14319;49.422;10.934;2024-03-02T08:12:16;7.90;96.30
26707;DHT22;14319;49.422;10.934;2024-03-02T08:14:18;8.00;95.60
26707;DHT22;14319;49.422;10.934;2024-03-02T08:16:19;8.00;95.40
26707;DHT22;14319;49.422;10.934;2024-03-02T08:18:20;8.00;95.80
26707;DHT22;14319;49.422;10.934;2024-03-02T08:20:20;8.10;95.30
26707;DHT22;14319;49.422;10.934;2024-03-02T08:22:21;8.10;94.90
26707;DHT22;14319;49.422;10.934;2024-03-02T08:24:22;8.10;94.10
26707;DHT22;14319;49.422;10.934;2024-03-02T08:26:22;8.20;94.20
26707;DHT22;14319;49.422;10.934;2024-03-02T08:28:23;8.20;94.00
26707;DHT22;14319;49.422;10.934;2024-03-02T08:30:24;8.20;94.00
26707;DHT22;14319;49.422;10.934;2024-03-02T08:32:24;8.20;93.80
26707;DHT22;14319;49.422;10.934;2024-03-02T08:34:25;8.20;94.30
26707;DHT22;14319;49.422;10.934;2024-03-02T08:36:25;8.30;93.80
26707;DHT22;14319;49.422;10.934;2024-03-02T08:38:26;8.40;93.50
26707;DHT22;14319;49.422;10.934;2024-03-02T08:40:27;8.50;93.60
26707;DHT22;14319;49.422;10.934;2024-03-02T08:42:27;8.50;93.00
26707;DHT22;14319;49.422;10.934;2024-03-02T08:44:28;8.60;93.00
26707;DHT22;14319;49.422;10.934;2024-03-02T08:46:29;8.60;93.20
26707;DHT22;14319;49.422;10.934;2024-03-02T08:48:29;8.60;93.10
26707;DHT22;14319;49.422;10.934;2024-03-02T08:50:30;8.70;92.90
26707;DHT22;14319;49.422;10.934;2024-03-02T08:52:30;8.70;93.20
26707;DHT22;14319;49.422;10.934;2024-03-02T08:54:31;8.70;92.00
26707;DHT22;14319;49.422;10.934;2024-03-02T08:56:34;8.80;92.20
26707;DHT22;14319;49.422;10.934;2024-03-02T08:58:35;8.80;91.80
26707;DHT22;14319;49.422;10.934;2024-03-02T09:00:36;8.80;92.40
26707;DHT22;14319;49.422;10.934;2024-03-02T09:02:37;8.80;92.00
26707;DHT22;14319;49.422;10.934;2024-03-02T09:04:37;8.90;92.30
26707;DHT22;14319;49.422;10.934;2024-03-02T09:06:38;8.90;92.20
26707;DHT22;14319;49.422;10.934;2024-03-02T09:08:39;9.00;91.50
26707;DHT22;14319;49.422;10.934;2024-03-02T09:10:40;9.10;91.50
26707;DHT22;14319;49.422;10.934;2024-03-02T09:12:40;9.10;91.70
26707;DHT22;14319;49.422;10.934;2024-03-02T09:14:41;9.20;91.10
26707;DHT22;14319;49.422;10.934;2024-03-02T09:16:42;9.30;91.00
26707;DHT22;14319;49.422;10.934;2024-03-02T09:18:43;9.40;90.80
26707;DHT22;14319;49.422;10.934;2024-03-02T09:20:43;9.50;89.80
26707;DHT22;14319;49.422;10.934;2024-03-02T09:22:44;9.40;90.10
26707;DHT22;14319;49.422;10.934;2024-03-02T09:24:47;9.40;89.50
26707;DHT22;14319;49.422;10.934;2024-03-02T09:26:48;9.40;89.00
26707;DHT22;14319;49.422;10.934;2024-03-02T09:28:48;9.40;89.80
26707;DHT22;14319;49.422;10.934;2024-03-02T09:30:49;9.50;90.00
26707;DHT22;14319;49.422;10.934;2024-03-02T09:32:50;9.50;89.90
26707;DHT22;14319;49.422;10.934;2024-03-02T09:34:50;9.50;90.00
26707;DHT22;14319;49.422;10.934;2024-03-02T09:36:51;9.60;90.20
26707;DHT22;14319;49.422;10.934;2024-03-02T09:38:52;9.50;90.00
26707;DHT22;14319;49.422;10.934;2024-03-02T09:40:53;9.60;89.30
26707;DHT22;14319;49.422;10.934;2024-03-02T09:42:54;9.70;89.50
26707;DHT22;14319;49.422;10.934;2024-03-02T09:44:55;9.70;89.40
26707;DHT22;14319;49.422;10.934;2024-03-02T09:46:56;9.80;89.30
26707;DHT22;14319;49.422;10.934;2024-03-02T09:48:57;9.80;88.90
26707;DHT22;14319;49.422;10.934;2024-03-02T09:50:57;9.80;88.10
26707;DHT22;14319;49.422;10.934;2024-03-02T09:52:59;9.80;89.00
26707;DHT22;14319;49.422;10.934;2024-03-02T09:55:00;9.80;88.30
26707;DHT22;14319;49.422;10.934;2024-03-02T09:57:02;9.90;88.50
26707;DHT22;14319;49.422;10.934;2024-03-02T09:59:02;9.90;88.00
26707;DHT22;14319;49.422;10.934;2024-03-02T10:01:06;9.90;88.20
26707;DHT22;14319;49.422;10.934;2024-03-02T10:03:12;9.90;88.00
26707;DHT22;14319;49.422;10.934;2024-03-02T10:05:13;9.90;88.50
26707;DHT22;14319;49.422;10.934;2024-03-02T10:07:23;10.00;88.40
26707;DHT22;14319;49.422;10.934;2024-03-02T10:09:27;10.00;88.10
26707;DHT22;14319;49.422;10.934;2024-03-02T10:11:30;10.00;88.60
26707;DHT22;14319;49.422;10.934;2024-03-02T10:13:31;10.10;89.80
26707;DHT22;14319;49.422;10.934;2024-03-02T10:15:32;10.20;88.50
26707;DHT22;14319;49.422;10.934;2024-03-02T10:17:33;10.30;87.70
26707;DHT22;14319;49.422;10.934;2024-03-02T10:19:34;10.40;87.00
26707;DHT22;14319;49.422;10.934;2024-03-02T10:21:35;10.40;86.80
26707;DHT22;14319;49.422;10.934;2024-03-02T10:23:36;10.40;87.50
26707;DHT22;14319;49.422;10.934;2024-03-02T10:25:36;10.50;86.60
26707;DHT22;14319;49.422;10.934;2024-03-02T10:27:37;10.50;86.90
26707;DHT22;14319;49.422;10.934;2024-03-02T10:29:40;10.50;86.50
26707;DHT22;14319;49.422;10.934;2024-03-02T10:31:45;10.60;86.50
26707;DHT22;14319;49.422;10.934;2024-03-02T10:33:46;10.70;85.90
26707;DHT22;14319;49.422;10.934;2024-03-02T10:35:49;10.70;85.80
26707;DHT22;14319;49.422;10.934;2024-03-02T10:37:50;10.60;87.00
26707;DHT22;14319;49.422;10.934;2024-03-02T10:39:52;10.70;86.90
26707;DHT22;14319;49.422;10.934;2024-03-02T10:41:53;10.80;86.00
26707;DHT22;14319;49.422;10.934;2024-03-02T10:43:56;10.80;86.80
26707;DHT22;14319;49.422;10.934;2024-03-02T10:46:00;10.80;86.10
26707;DHT22;14319;49.422;10.934;2024-03-02T10:48:02;10.80;85.80
26707;DHT22;14319;49.422;10.934;2024-03-02T10:50:04;10.90;86.10
26707;DHT22;14319;49.422;10.934;2024-03-02T10:52:08;10.90;85.60
26707;DHT22;14319;49.422;10.934;2024-03-02T10:54:09;10.90;86.20
26707;DHT22;14319;49.422;10.934;2024-03-02T10:56:15;10.90;85.80
26707;DHT22;14319;49.422;10.934;2024-03-02T10:58:17;11.00;86.70
26707;DHT22;14319;49.422;10.934;2024-03-02T11:00:19;11.00;85.90
26707;DHT22;14319;49.422;10.934;2024-03-02T11:02:25;11.10;85.20
26707;DHT22;14319;49.422;10.934;2024-03-02T11:04:28;11.20;82.90
26707;DHT22;14319;49.422;10.934;2024-03-02T11:06:29;11.20;82.80
26707;DHT22;14319;49.422;10.934;2024-03-02T11:08:34;11.20;82.90
26707;DHT22;14319;49.422;10.934;2024-03-02T11:10:41;11.20;81.80
26707;DHT22;14319;49.422;10.934;2024-03-02T11:13:02;11.30;82.40
26707;DHT22;14319;49.422;10.934;2024-03-02T11:15:10;11.30;82.90
26707;DHT22;14319;49.422;10.934;2024-03-02T11:17:14;11.40;81.00
26707;DHT22;14319;49.422;10.934;2024-03-02T11:19:18;11.40;81.40
26707;DHT22;14319;49.422;10.934;2024-03-02T11:21:20;11.40;82.40
26707;DHT22;14319;49.422;10.934;2024-03-02T11:23:34;11.40;81.70
26707;DHT22;14319;49.422;10.934;2024-03-02T11:25:36;11.40;81.50
26707;DHT22;14319;49.422;10.934;2024-03-02T11:29:46;11.40;80.60
26707;DHT22;14319;49.422;10.934;2024-03-02T11:31:59;11.50;82.10
26707;DHT22;14319;49.422;10.934;2024-03-02T11:34:18;11.60;81.90
26707;DHT22;14319;49.422;10.934;2024-03-02T11:36:29;11.60;81.20
26707;DHT22;14319;49.422;10.934;2024-03-02T11:38:31;11.80;81.80
26707;DHT22;14319;49.422;10.934;2024-03-02T11:40:32;11.80;82.40
26707;DHT22;14319;49.422;10.934;2024-03-02T11:42:33;11.80;82.40
26707;DHT22;14319;49.422;10.934;2024-03-02T11:44:34;11.90;83.50
26707;DHT22;14319;49.422;10.934;2024-03-02T11:46:35;12.00;82.10
26707;DHT22;14319;49.422;10.934;2024-03-02T11:48:36;12.00;82.50
26707;DHT22;14319;49.422;10.934;2024-03-02T11:50:51;12.10;81.30
26707;DHT22;14319;49.422;10.934;2024-03-02T11:52:51;12.10;80.80
26707;DHT22;14319;49.422;10.934;2024-03-02T11:54:53;12.10;81.40
26707;DHT22;14319;49.422;10.934;2024-03-02T11:56:54;12.10;80.90
26707;DHT22;14319;49.422;10.934;2024-03-02T11:58:55;12.10;80.80
26707;DHT22;14319;49.422;10.934;2024-03-02T12:00:56;12.10;80.60
26707;DHT22;14319;49.422;10.934;2024-03-02T12:03:15;12.10;81.60
26707;DHT22;14319;49.422;10.934;2024-03-02T12:05:17;12.10;81.60
26707;DHT22;14319;49.422;10.934;2024-03-02T12:07:19;12.10;81.10
26707;DHT22;14319;49.422;10.934;2024-03-02T12:09:23;12.10;80.90
26707;DHT22;14319;49.422;10.934;2024-03-02T12:11:24;12.00;81.00
26707;DHT22;14319;49.422;10.934;2024-03-02T12:13:25;12.00;81.30
26707;DHT22;14319;49.422;10.934;2024-03-02T12:15:31;12.10;80.80
26707;DHT22;14319;49.422;10.934;2024-03-02T12:17:31;12.10;81.30
26707;DHT22;14319;49.422;10.934;2024-03-02T12:19:33;12.10;80.70
26707;DHT22;14319;49.422;10.934;2024-03-02T12:21:34;12.10;80.20
26707;DHT22;14319;49.422;10.934;2024-03-02T12:23:34;12.10;79.70
26707;DHT22;14319;49.422;10.934;2024-03-02T12:25:35;12.10;78.50
26707;DHT22;14319;49.422;10.934;2024-03-02T12:27:36;12.20;79.10
26707;DHT22;14319;49.422;10.934;2024-03-02T12:29:37;12.20;79.30
26707;DHT22;14319;49.422;10.934;2024-03-02T12:31:39;12.20;78.60
26707;DHT22;14319;49.422;10.934;2024-03-02T12:33:40;12.20;78.70
26707;DHT22;14319;49.422;10.934;2024-03-02T12:35:42;12.20;78.20
26707;DHT22;14319;49.422;10.934;2024-03-02T12:39:45;12.10;78.80
26707;DHT22;14319;49.422;10.934;2024-03-02T12:41:47;12.20;78.20
26707;DHT22;14319;49.422;10.934;2024-03-02T12:43:47;12.20;77.90
26707;DHT22;14319;49.422;10.934;2024-03-02T12:45:51;12.20;77.70
26707;DHT22;14319;49.422;10.934;2024-03-02T12:47:51;12.20;79.30
26707;DHT22;14319;49.422;10.934;2024-03-02T12:49:55;12.10;79.50
26707;DHT22;14319;49.422;10.934;2024-03-02T12:51:56;12.10;78.90
26707;DHT22;14319;49.422;10.934;2024-03-02T12:53:58;12.10;79.50